Time;durP1;ratioP1;P1;durP2;ratioP2;P2;SDS_P1;SDS_P2;PMS_P1;PMS_P2;Temp;Humidity;BMP_temperature;BMP_pressure;BME280_temperature;BME280_humidity;BME280_pressure;Samples;Min_cycle;Max_cycle;Signal;HPM_P1;HPM_P2
2023/05/05 00:01:25;;;;;;;9.02;3.30;;;;;;;;;;5036214;28;20029;-68
2023/05/05 00:03:51;;;;;;;8.50;3.10;;;;;;;;;;5044910;28;20107;-67
2023/05/05 00:06:16;;;;;;;6.32;3.00;;;;;;;;;;5045946;28;20048;-67
2023/05/05 00:08:42;;;;;;;7.63;2.90;;;;;;;;;;5044641;28;20021;-68
2023/05/05 00:11:07;;;;;;;9.30;3.22;;;;;;;;;;5046527;28;20017;-68
2023/05/05 00:13:32;;;;;;;6.50;3.10;;;;;;;;;;5048695;28;20074;-67
2023/05/05 00:15:57;;;;;;;7.97;2.80;;;;;;;;;;5046827;28;20037;-68
2023/05/05 00:18:22;;;;;;;8.00;3.60;;;;;;;;;;5042558;28;20032;-69
2023/05/05 00:20:47;;;;;;;7.87;3.30;;;;;;;;;;5045302;28;20031;-68
2023/05/05 00:23:16;;;;;;;9.03;3.30;;;;;;;;;;5047084;28;20020;-68
2023/05/05 00:25:41;;;;;;;9.73;3.30;;;;;;;;;;5044611;28;20036;-68
2023/05/05 00:28:06;;;;;;;6.35;3.30;;;;;;;;;;5046822;28;20441;-68
2023/05/05 00:30:32;;;;;;;8.33;3.20;;;;;;;;;;5049650;28;20036;-68
2023/05/05 00:32:57;;;;;;;8.32;3.55;;;;;;;;;;5044530;28;20025;-68
2023/05/05 00:35:22;;;;;;;8.15;3.65;;;;;;;;;;5047302;28;20066;-69
2023/05/05 00:37:48;;;;;;;9.20;3.23;;;;;;;;;;5048906;28;20056;-68
2023/05/05 00:40:13;;;;;;;6.95;3.08;;;;;;;;;;5056496;28;20024;-69
2023/05/05 00:42:39;;;;;;;7.05;3.22;;;;;;;;;;5043047;28;20029;-68
2023/05/05 00:45:05;;;;;;;9.02;3.33;;;;;;;;;;5045528;28;20480;-68
2023/05/05 00:47:30;;;;;;;7.45;3.20;;;;;;;;;;5037394;28;20026;-68
2023/05/05 00:49:55;;;;;;;9.13;3.20;;;;;;;;;;5040762;28;20035;-68
2023/05/05 00:52:20;;;;;;;6.32;3.10;;;;;;;;;;5044390;28;20037;-68
2023/05/05 00:54:45;;;;;;;7.55;3.15;;;;;;;;;;5043765;28;20495;-68
2023/05/05 00:57:11;;;;;;;6.73;3.50;;;;;;;;;;5049442;28;20507;-68
2023/05/05 00:59:36;;;;;;;7.20;3.17;;;;;;;;;;5047351;28;20033;-67
2023/05/05 01:02:02;;;;;;;6.95;3.30;;;;;;;;;;5041473;28;20020;-68
2023/05/05 01:04:27;;;;;;;8.07;3.53;;;;;;;;;;5056950;28;20384;-69
2023/05/05 01:06:55;;;;;;;8.40;3.28;;;;;;;;;;5041954;28;20113;-68
2023/05/05 01:09:38;;;;;;;7.70;3.20;;;;;;;;;;5041665;28;20032;-68
2023/05/05 01:12:09;;;;;;;8.70;3.40;;;;;;;;;;5048881;28;20052;-68
2023/05/05 01:14:44;;;;;;;9.02;3.65;;;;;;;;;;5050167;28;20035;-68
2023/05/05 01:17:16;;;;;;;7.03;3.70;;;;;;;;;;5054505;28;20017;-68
2023/05/05 01:20:00;;;;;;;8.10;3.72;;;;;;;;;;5056565;28;20029;-68
2023/05/05 01:22:27;;;;;;;7.32;3.35;;;;;;;;;;5045249;28;20029;-68
2023/05/05 01:25:02;;;;;;;8.68;3.50;;;;;;;;;;5045048;28;20033;-69
2023/05/05 01:27:47;;;;;;;6.93;3.38;;;;;;;;;;5047562;28;20028;-69
2023/05/05 01:30:18;;;;;;;8.85;3.63;;;;;;;;;;5041731;28;20028;-68
2023/05/05 01:32:47;;;;;;;7.88;3.63;;;;;;;;;;5047036;28;20024;-68
2023/05/05 01:35:15;;;;;;;9.88;3.90;;;;;;;;;;5032770;28;20010;-67
2023/05/05 01:37:47;;;;;;;8.73;3.70;;;;;;;;;;5038014;28;20083;-69
2023/05/05 01:40:14;;;;;;;8.90;3.95;;;;;;;;;;5033021;28;20025;-68
2023/05/05 01:42:41;;;;;;;8.52;3.70;;;;;;;;;;5049180;28;20047;-69
2023/05/05 01:45:08;;;;;;;7.43;3.50;;;;;;;;;;5043975;28;20041;-68
2023/05/05 01:47:34;;;;;;;9.23;3.92;;;;;;;;;;5040367;28;20025;-68
2023/05/05 01:50:00;;;;;;;;;;;;;;;;;;5039047;28;20049;-68
2023/05/05 01:52:25;;;;;;;7.40;3.27;;;;;;;;;;5038669;28;20396;-68
2023/05/05 01:54:51;;;;;;;7.03;3.28;;;;;;;;;;5043056;28;20028;-69
2023/05/05 01:57:19;;;;;;;8.18;3.20;;;;;;;;;;5045078;28;20480;-69
2023/05/05 01:59:45;;;;;;;6.78;3.55;;;;;;;;;;5048876;28;20040;-69
2023/05/05 02:02:11;;;;;;;7.10;3.38;;;;;;;;;;5048316;28;20016;-68
2023/05/05 02:04:43;;;;;;;10.00;3.50;;;;;;;;;;5046409;28;20651;-68
2023/05/05 02:07:09;;;;;;;6.88;3.25;;;;;;;;;;5058260;28;20034;-69
2023/05/05 02:09:35;;;;;;;8.63;3.88;;;;;;;;;;5049914;28;20064;-69
2023/05/05 02:12:01;;;;;;;8.90;3.38;;;;;;;;;;5044818;28;20611;-69
2023/05/05 02:14:27;;;;;;;8.18;3.40;;;;;;;;;;5054199;28;20020;-69
2023/05/05 02:16:53;;;;;;;9.02;3.83;;;;;;;;;;5049609;28;20028;-69
2023/05/05 02:19:21;;;;;;;9.05;3.88;;;;;;;;;;5049866;28;20041;-69
2023/05/05 02:21:46;;;;;;;8.98;3.53;;;;;;;;;;5060245;28;20480;-69
2023/05/05 02:24:11;;;;;;;7.67;3.43;;;;;;;;;;5061561;28;20028;-68
2023/05/05 02:26:40;;;;;;;7.17;3.60;;;;;;;;;;5059648;28;20040;-68
2023/05/05 02:29:08;;;;;;;7.32;3.03;;;;;;;;;;5057222;28;20032;-69
2023/05/05 02:31:37;;;;;;;7.07;3.30;;;;;;;;;;5063128;28;20027;-68
2023/05/05 02:34:04;;;;;;;7.35;3.45;;;;;;;;;;5050198;28;20516;-69
2023/05/05 02:36:31;;;;;;;8.13;3.45;;;;;;;;;;5050619;28;20084;-69
2023/05/05 02:38:59;;;;;;;8.27;3.83;;;;;;;;;;5055648;28;20041;-68
2023/05/05 02:41:25;;;;;;;8.05;3.53;;;;;;;;;;5049921;28;20021;-69
2023/05/05 02:43:51;;;;;;;9.07;3.60;;;;;;;;;;5053747;28;20017;-69
2023/05/05 02:46:16;;;;;;;8.85;4.13;;;;;;;;;;5055432;28;20037;-69
2023/05/05 02:48:42;;;;;;;8.23;3.37;;;;;;;;;;5066584;28;20042;-69
2023/05/05 02:51:07;;;;;;;7.43;3.78;;;;;;;;;;5047717;28;20032;-68
2023/05/05 02:53:33;;;;;;;8.32;4.35;;;;;;;;;;5057195;28;20055;-68
2023/05/05 02:56:01;;;;;;;7.72;4.05;;;;;;;;;;5070821;28;20047;-68
2023/05/05 02:58:33;;;;;;;8.82;3.30;;;;;;;;;;5047452;28;20030;-68
2023/05/05 03:00:58;;;;;;;;;;;;;;;;;;5056172;28;20100;-69
2023/05/05 03:03:27;;;;;;;9.40;4.17;;;;;;;;;;5071143;28;19913;-69
2023/05/05 03:06:06;;;;;;;8.80;3.88;;;;;;;;;;5074263;28;20450;-69
2023/05/05 03:08:49;;;;;;;10.52;3.65;;;;;;;;;;5063990;28;20047;-69
2023/05/05 03:11:21;;;;;;;8.48;3.67;;;;;;;;;;5067203;28;20035;-69
2023/05/05 03:13:49;;;;;;;9.38;3.67;;;;;;;;;;5051429;28;20036;-69
2023/05/05 03:16:16;;;;;;;7.53;3.58;;;;;;;;;;5067932;28;20009;-68
2023/05/05 03:18:43;;;;;;;7.55;3.35;;;;;;;;;;5070456;28;20728;-69
2023/05/05 03:21:09;;;;;;;7.45;3.50;;;;;;;;;;5069521;28;20025;-69
2023/05/05 03:23:35;;;;;;;7.73;3.80;;;;;;;;;;5064970;28;20156;-67
2023/05/05 03:26:00;;;;;;;9.50;3.78;;;;;;;;;;5057858;28;20048;-67
2023/05/05 03:28:25;;;;;;;7.93;3.63;;;;;;;;;;5071808;28;20107;-66
2023/05/05 03:30:51;;;;;;;8.70;3.53;;;;;;;;;;5054289;28;20040;-67
2023/05/05 03:33:16;;;;;;;10.40;3.67;;;;;;;;;;5071743;28;20016;-66
2023/05/05 03:35:41;;;;;;;7.05;3.60;;;;;;;;;;5071171;28;20037;-67
2023/05/05 03:38:07;;;;;;;7.90;4.00;;;;;;;;;;5062990;28;20052;-67
2023/05/05 03:40:32;;;;;;;8.65;3.88;;;;;;;;;;5052229;28;20108;-66
2023/05/05 03:42:57;;;;;;;7.53;3.73;;;;;;;;;;5053852;28;20048;-66
2023/05/05 03:45:22;;;;;;;8.57;4.03;;;;;;;;;;5054241;28;20028;-68
2023/05/05 03:47:47;;;;;;;7.47;3.72;;;;;;;;;;5060855;28;20032;-67
2023/05/05 03:50:12;;;;;;;7.53;3.37;;;;;;;;;;5061196;28;20489;-67
2023/05/05 03:52:38;;;;;;;8.52;3.75;;;;;;;;;;5057230;28;20519;-66
2023/05/05 03:55:03;;;;;;;8.83;3.80;;;;;;;;;;5047389;28;20054;-67
2023/05/05 03:57:28;;;;;;;9.88;3.92;;;;;;;;;;5053874;28;20472;-68
2023/05/05 03:59:53;;;;;;;7.85;3.60;;;;;;;;;;5059468;28;20021;-67
2023/05/05 04:02:19;;;;;;;9.93;3.60;;;;;;;;;;5047266;28;20455;-67
2023/05/05 04:04:44;;;;;;;8.77;3.63;;;;;;;;;;5041901;28;20485;-67
2023/05/05 04:07:10;;;;;;;8.70;3.73;;;;;;;;;;5046456;28;20548;-66
2023/05/05 04:09:35;;;;;;;9.15;3.72;;;;;;;;;;5047016;28;20483;-68
2023/05/05 04:12:01;;;;;;;9.52;3.67;;;;;;;;;;5048850;28;20017;-66
2023/05/05 04:14:28;;;;;;;9.80;3.83;;;;;;;;;;5047428;28;20116;-67
2023/05/05 04:16:53;;;;;;;8.63;4.13;;;;;;;;;;5052995;28;20125;-66
2023/05/05 04:19:18;;;;;;;7.00;3.37;;;;;;;;;;5052399;28;20533;-65
2023/05/05 04:21:44;;;;;;;8.77;3.53;;;;;;;;;;5052589;28;20025;-68
2023/05/05 04:24:10;;;;;;;8.70;3.83;;;;;;;;;;5058711;28;20021;-67
2023/05/05 04:26:35;;;;;;;8.77;3.70;;;;;;;;;;5063710;28;20097;-66
2023/05/05 04:29:00;;;;;;;13.97;5.80;;;;;;;;;;5055733;28;20361;-66
2023/05/05 04:31:25;;;;;;;15.02;6.20;;;;;;;;;;5044005;28;20086;-66
2023/05/05 04:33:50;;;;;;;11.98;6.13;;;;;;;;;;5042553;28;20038;-67
2023/05/05 04:36:17;;;;;;;12.30;5.60;;;;;;;;;;5039784;28;20395;-62
2023/05/05 04:38:43;;;;;;;10.80;4.82;;;;;;;;;;5042289;28;20040;-61
2023/05/05 04:41:08;;;;;;;9.93;4.75;;;;;;;;;;5046593;28;20021;-64
2023/05/05 04:43:33;;;;;;;8.10;4.10;;;;;;;;;;5053643;28;20032;-64
2023/05/05 04:45:58;;;;;;;8.85;3.55;;;;;;;;;;5050970;28;20427;-64
2023/05/05 04:48:23;;;;;;;8.63;3.80;;;;;;;;;;5047240;28;20044;-62
2023/05/05 04:50:48;;;;;;;11.07;4.13;;;;;;;;;;5045107;28;20021;-62
2023/05/05 04:53:13;;;;;;;8.10;3.90;;;;;;;;;;5034711;28;20029;-62
2023/05/05 04:55:39;;;;;;;8.50;4.07;;;;;;;;;;5040247;28;20021;-64
2023/05/05 04:58:04;;;;;;;11.63;3.90;;;;;;;;;;5036444;28;20132;-61
2023/05/05 05:00:29;;;;;;;7.97;3.30;;;;;;;;;;5043904;28;20017;-63
2023/05/05 05:02:54;;;;;;;7.90;3.50;;;;;;;;;;5045556;28;20411;-63
2023/05/05 05:05:20;;;;;;;12.75;3.83;;;;;;;;;;5042622;28;20064;-63
2023/05/05 05:07:45;;;;;;;10.35;4.00;;;;;;;;;;5047795;28;20034;-62
2023/05/05 05:10:10;;;;;;;9.67;3.90;;;;;;;;;;5044670;28;20028;-62
2023/05/05 05:12:35;;;;;;;9.25;3.70;;;;;;;;;;5035373;28;20063;-63
2023/05/05 05:15:01;;;;;;;7.35;3.63;;;;;;;;;;5047374;28;20013;-62
2023/05/05 05:17:26;;;;;;;7.00;3.42;;;;;;;;;;5046188;28;20413;-63
2023/05/05 05:19:51;;;;;;;11.37;3.40;;;;;;;;;;5057743;28;20094;-63
2023/05/05 05:22:16;;;;;;;8.87;3.60;;;;;;;;;;5039767;28;20024;-62
2023/05/05 05:24:41;;;;;;;7.57;3.27;;;;;;;;;;5040373;28;20032;-62
2023/05/05 05:27:08;;;;;;;8.40;3.55;;;;;;;;;;5049753;28;20121;-62
2023/05/05 05:29:33;;;;;;;8.95;4.32;;;;;;;;;;5049301;28;20029;-65
2023/05/05 05:31:58;;;;;;;9.30;3.80;;;;;;;;;;5050760;28;20024;-62
2023/05/05 05:34:23;;;;;;;10.00;3.58;;;;;;;;;;5047409;28;20029;-62
2023/05/05 05:36:49;;;;;;;7.83;3.73;;;;;;;;;;5063484;28;20619;-62
2023/05/05 05:39:14;;;;;;;9.55;3.90;;;;;;;;;;5066026;28;20032;-62
2023/05/05 05:41:39;;;;;;;8.27;3.53;;;;;;;;;;5043296;28;20096;-63
2023/05/05 05:44:04;;;;;;;14.07;3.63;;;;;;;;;;5052115;28;20036;-63
2023/05/05 05:46:30;;;;;;;9.35;3.25;;;;;;;;;;5056669;28;20377;-62
2023/05/05 05:48:55;;;;;;;9.13;3.63;;;;;;;;;;5052037;28;20036;-62
2023/05/05 05:51:20;;;;;;;8.87;3.40;;;;;;;;;;5051752;28;20040;-62
2023/05/05 05:53:45;;;;;;;13.50;4.25;;;;;;;;;;5057724;28;20024;-63
2023/05/05 05:56:10;;;;;;;10.07;3.57;;;;;;;;;;5050573;28;20017;-62
2023/05/05 05:58:35;;;;;;;12.23;3.47;;;;;;;;;;5050504;28;20555;-61
2023/05/05 06:01:02;;;;;;;10.57;3.75;;;;;;;;;;5048827;28;20017;-64
2023/05/05 06:03:28;;;;;;;7.10;3.58;;;;;;;;;;5044096;28;20327;-61
2023/05/05 06:05:53;;;;;;;8.40;3.50;;;;;;;;;;5050892;28;20017;-62
2023/05/05 06:08:18;;;;;;;10.00;3.63;;;;;;;;;;5052935;28;20479;-62
2023/05/05 06:10:43;;;;;;;8.70;3.60;;;;;;;;;;5040512;28;20035;-62
2023/05/05 06:13:08;;;;;;;9.48;3.47;;;;;;;;;;5054713;28;20481;-62
2023/05/05 06:15:33;;;;;;;10.38;3.33;;;;;;;;;;5050998;28;20091;-62
2023/05/05 06:17:58;;;;;;;7.95;3.95;;;;;;;;;;5047315;28;20032;-62
2023/05/05 06:20:24;;;;;;;9.37;3.33;;;;;;;;;;5058607;28;20167;-64
2023/05/05 06:22:49;;;;;;;9.60;3.50;;;;;;;;;;5045687;28;20033;-62
2023/05/05 06:25:14;;;;;;;9.00;3.17;;;;;;;;;;5043767;28;20060;-62
2023/05/05 06:27:39;;;;;;;9.67;3.23;;;;;;;;;;5041961;28;20111;-61
2023/05/05 06:30:05;;;;;;;7.75;3.17;;;;;;;;;;5048344;28;20590;-64
2023/05/05 06:32:30;;;;;;;10.82;2.92;;;;;;;;;;5040128;28;20034;-67
2023/05/05 06:34:55;;;;;;;10.68;3.30;;;;;;;;;;5043804;28;20032;-67
2023/05/05 06:37:20;;;;;;;7.82;2.90;;;;;;;;;;5041687;28;20025;-66
2023/05/05 06:39:46;;;;;;;6.55;2.80;;;;;;;;;;5041579;28;20032;-67
2023/05/05 06:42:11;;;;;;;8.20;3.17;;;;;;;;;;5057560;28;20020;-67
2023/05/05 06:44:36;;;;;;;6.78;2.90;;;;;;;;;;5057054;28;20013;-67
2023/05/05 06:47:02;;;;;;;10.30;3.22;;;;;;;;;;5046770;28;20021;-66
2023/05/05 06:49:27;;;;;;;7.30;2.72;;;;;;;;;;5062168;28;20021;-66
2023/05/05 06:51:52;;;;;;;7.15;3.20;;;;;;;;;;5054388;28;20124;-66
2023/05/05 06:54:17;;;;;;;7.47;3.03;;;;;;;;;;5065697;28;20487;-66
2023/05/05 06:56:43;;;;;;;6.47;2.90;;;;;;;;;;5057198;28;20032;-67
2023/05/05 06:59:08;;;;;;;7.63;2.70;;;;;;;;;;5057610;28;20029;-67
2023/05/05 07:01:33;;;;;;;7.65;3.00;;;;;;;;;;5069381;28;20069;-66
2023/05/05 07:03:58;;;;;;;6.70;2.78;;;;;;;;;;5065686;28;20059;-66
2023/05/05 07:06:23;;;;;;;6.30;2.70;;;;;;;;;;5049856;28;20033;-66
2023/05/05 07:08:48;;;;;;;10.27;2.97;;;;;;;;;;5050184;28;20025;-67
2023/05/05 07:11:13;;;;;;;6.28;2.80;;;;;;;;;;5050874;28;20048;-67
2023/05/05 07:13:38;;;;;;;6.53;2.80;;;;;;;;;;5052750;28;20056;-66
2023/05/05 07:16:04;;;;;;;8.10;2.72;;;;;;;;;;5049190;28;20040;-67
2023/05/05 07:18:29;;;;;;;8.33;3.17;;;;;;;;;;5048434;28;20496;-68
2023/05/05 07:20:54;;;;;;;7.43;3.20;;;;;;;;;;5053198;28;20118;-68
2023/05/05 07:23:19;;;;;;;5.78;2.40;;;;;;;;;;5052281;28;20021;-67
2023/05/05 07:25:44;;;;;;;6.73;2.73;;;;;;;;;;5064993;28;20076;-68
2023/05/05 07:28:10;;;;;;;6.90;2.43;;;;;;;;;;5074654;28;20539;-70
2023/05/05 07:30:35;;;;;;;7.43;2.70;;;;;;;;;;5073420;28;20017;-67
2023/05/05 07:33:00;;;;;;;8.40;2.83;;;;;;;;;;5054771;28;20025;-68
2023/05/05 07:35:26;;;;;;;8.40;2.63;;;;;;;;;;5053220;28;20021;-67
2023/05/05 07:37:51;;;;;;;6.43;2.55;;;;;;;;;;5059953;28;20510;-67
2023/05/05 07:40:16;;;;;;;7.37;2.67;;;;;;;;;;5064383;28;20426;-67
2023/05/05 07:42:42;;;;;;;9.23;2.90;;;;;;;;;;5072155;28;20020;-67
2023/05/05 07:45:07;;;;;;;6.97;2.90;;;;;;;;;;5105116;28;20017;-67
2023/05/05 07:47:32;;;;;;;10.40;2.93;;;;;;;;;;5059606;28;20063;-67
2023/05/05 07:49:57;;;;;;;6.23;2.43;;;;;;;;;;5052593;28;20013;-67
2023/05/05 07:52:22;;;;;;;7.97;2.40;;;;;;;;;;5052335;28;20025;-68
2023/05/05 07:54:48;;;;;;;5.40;2.27;;;;;;;;;;5058785;28;20013;-67
2023/05/05 07:57:13;;;;;;;6.33;2.60;;;;;;;;;;5067244;28;20380;-67
2023/05/05 07:59:42;;;;;;;7.70;2.50;;;;;;;;;;5072083;28;20107;-67
2023/05/05 08:02:07;;;;;;;5.63;2.38;;;;;;;;;;5050679;28;20028;-68
2023/05/05 08:04:32;;;;;;;7.38;2.50;;;;;;;;;;5052126;28;20392;-68
2023/05/05 08:06:57;;;;;;;7.83;2.60;;;;;;;;;;5052797;28;20416;-68
2023/05/05 08:09:22;;;;;;;6.97;2.47;;;;;;;;;;5070135;28;20112;-68
2023/05/05 08:11:48;;;;;;;6.78;2.45;;;;;;;;;;5052271;28;20029;-68
2023/05/05 08:14:14;;;;;;;7.03;2.60;;;;;;;;;;5053154;28;20017;-68
2023/05/05 08:16:39;;;;;;;5.35;2.40;;;;;;;;;;5051414;28;20024;-68
2023/05/05 08:19:04;;;;;;;5.73;2.60;;;;;;;;;;5053936;28;20024;-68
2023/05/05 08:21:30;;;;;;;7.03;2.72;;;;;;;;;;5061068;28;20428;-68
2023/05/05 08:23:55;;;;;;;6.32;2.50;;;;;;;;;;5075252;28;20020;-66
2023/05/05 08:26:21;;;;;;;8.90;2.70;;;;;;;;;;5058815;28;20032;-66
2023/05/05 08:28:47;;;;;;;7.30;2.88;;;;;;;;;;5052444;28;20025;-67
2023/05/05 08:31:12;;;;;;;5.85;2.45;;;;;;;;;;5048299;28;20131;-66
2023/05/05 08:33:37;;;;;;;7.50;2.88;;;;;;;;;;5051348;28;20017;-67
2023/05/05 08:36:04;;;;;;;6.45;2.70;;;;;;;;;;5055654;28;20029;-66
2023/05/05 08:38:29;;;;;;;10.05;3.03;;;;;;;;;;5059125;28;20032;-66
2023/05/05 08:40:54;;;;;;;5.70;2.78;;;;;;;;;;5048306;28;20025;-66
2023/05/05 08:43:22;;;;;;;6.43;2.60;;;;;;;;;;5062781;28;20395;-66
2023/05/05 08:45:48;;;;;;;7.03;2.50;;;;;;;;;;5066166;28;21973;-66
2023/05/05 08:48:15;;;;;;;6.38;2.47;;;;;;;;;;5047878;28;20073;-69
2023/05/05 08:50:43;;;;;;;6.97;2.50;;;;;;;;;;5060317;28;20023;-67
2023/05/05 08:53:09;;;;;;;7.50;2.40;;;;;;;;;;5050728;28;20534;-67
2023/05/05 08:55:37;;;;;;;7.28;2.83;;;;;;;;;;5049998;28;20400;-67
2023/05/05 08:58:03;;;;;;;6.60;2.50;;;;;;;;;;5051605;28;20108;-68
2023/05/05 09:00:28;;;;;;;7.22;2.22;;;;;;;;;;5048997;28;20151;-66
2023/05/05 09:02:57;;;;;;;6.15;2.30;;;;;;;;;;5052071;28;20040;-68
2023/05/05 09:05:23;;;;;;;5.95;2.20;;;;;;;;;;5067756;28;20380;-68
2023/05/05 09:07:49;;;;;;;7.97;2.60;;;;;;;;;;5071575;28;20016;-66
2023/05/05 09:10:14;;;;;;;6.72;2.50;;;;;;;;;;5070946;28;20024;-66
2023/05/05 09:12:40;;;;;;;6.75;2.28;;;;;;;;;;5067630;28;20108;-66
2023/05/05 09:15:06;;;;;;;6.03;2.40;;;;;;;;;;5044909;28;20134;-65
2023/05/05 09:17:31;;;;;;;7.70;2.25;;;;;;;;;;5049340;28;20052;-66
2023/05/05 09:20:04;;;;;;;6.20;2.25;;;;;;;;;;5062614;28;20464;-67
2023/05/05 09:22:35;;;;;;;5.82;2.28;;;;;;;;;;5070618;28;20055;-66
2023/05/05 09:25:00;;;;;;;5.72;2.33;;;;;;;;;;5070334;28;20013;-66
2023/05/05 09:27:26;;;;;;;4.90;2.10;;;;;;;;;;5055061;28;20021;-67
2023/05/05 09:29:51;;;;;;;6.88;2.38;;;;;;;;;;5051006;28;20024;-66
2023/05/05 09:32:17;;;;;;;6.57;2.15;;;;;;;;;;5051284;28;20033;-66
2023/05/05 09:34:42;;;;;;;4.80;2.30;;;;;;;;;;5050471;28;20048;-66
2023/05/05 09:37:07;;;;;;;7.00;2.33;;;;;;;;;;5050764;28;20027;-66
2023/05/05 09:39:32;;;;;;;8.07;2.40;;;;;;;;;;5053929;28;20467;-66
2023/05/05 09:41:57;;;;;;;7.88;2.15;;;;;;;;;;5053293;28;20447;-67
2023/05/05 09:44:32;;;;;;;6.35;2.10;;;;;;;;;;5050110;28;20021;-67
2023/05/05 09:46:57;;;;;;;5.50;2.00;;;;;;;;;;5054125;28;20503;-66
2023/05/05 09:49:24;;;;;;;5.82;2.00;;;;;;;;;;5031126;28;20044;-67
2023/05/05 09:51:50;;;;;;;5.05;2.05;;;;;;;;;;5031011;28;20112;-66
2023/05/05 09:54:15;;;;;;;;;;;;;;;;;;5030833;28;20029;-66
2023/05/05 09:56:41;;;;;;;4.70;2.05;;;;;;;;;;5039829;28;19913;-66
2023/05/05 09:59:07;;;;;;;6.18;2.00;;;;;;;;;;5050684;28;20044;-67
2023/05/05 10:01:32;;;;;;;6.90;2.30;;;;;;;;;;5050547;28;20496;-67
2023/05/05 10:03:57;;;;;;;5.17;2.30;;;;;;;;;;5049800;28;20059;-66
2023/05/05 10:06:37;;;;;;;5.03;2.13;;;;;;;;;;5050302;28;20420;-66
2023/05/05 10:09:03;;;;;;;6.18;2.10;;;;;;;;;;5050973;28;20433;-66
2023/05/05 10:11:28;;;;;;;7.72;2.08;;;;;;;;;;5043021;28;20041;-66
2023/05/05 10:13:53;;;;;;;6.50;2.60;;;;;;;;;;5054187;28;20024;-67
2023/05/05 10:16:19;;;;;;;5.07;1.87;;;;;;;;;;5070793;28;20016;-67
2023/05/05 10:18:45;;;;;;;4.82;1.85;;;;;;;;;;5070227;28;20071;-67
2023/05/05 10:21:12;;;;;;;7.03;1.80;;;;;;;;;;5048469;28;20025;-65
2023/05/05 10:23:46;;;;;;;6.93;2.00;;;;;;;;;;5049641;28;20032;-67
2023/05/05 10:26:12;;;;;;;5.78;1.73;;;;;;;;;;5052501;28;20075;-67
2023/05/05 10:28:43;;;;;;;6.50;2.00;;;;;;;;;;5044029;28;20033;-66
2023/05/05 10:31:10;;;;;;;8.07;1.98;;;;;;;;;;5034318;28;20013;-66
2023/05/05 10:33:43;;;;;;;5.18;1.88;;;;;;;;;;5047706;28;20013;-66
2023/05/05 10:36:09;;;;;;;5.25;1.50;;;;;;;;;;5054251;28;20021;-66
2023/05/05 10:38:34;;;;;;;5.85;2.10;;;;;;;;;;5054031;28;20503;-66
2023/05/05 10:41:00;;;;;;;5.83;2.17;;;;;;;;;;5048024;28;20039;-67
2023/05/05 10:43:26;;;;;;;4.55;1.95;;;;;;;;;;5053922;28;20095;-66
2023/05/05 10:45:52;;;;;;;5.97;1.90;;;;;;;;;;5054256;28;20025;-68
2023/05/05 10:48:20;;;;;;;4.15;1.85;;;;;;;;;;5067303;28;20028;-67
2023/05/05 10:50:50;;;;;;;6.28;1.90;;;;;;;;;;5065882;28;20020;-67
2023/05/05 10:53:27;;;;;;;8.85;2.00;;;;;;;;;;5070102;28;20032;-66
2023/05/05 10:55:56;;;;;;;5.00;1.80;;;;;;;;;;5046314;28;20017;-67
2023/05/05 10:58:30;;;;;;;5.70;2.13;;;;;;;;;;5053852;28;20031;-67
2023/05/05 11:00:55;;;;;;;5.13;1.90;;;;;;;;;;5054304;28;20024;-67
2023/05/05 11:03:21;;;;;;;4.90;1.80;;;;;;;;;;5053686;28;20342;-67
2023/05/05 11:06:06;;;;;;;5.75;1.83;;;;;;;;;;5053998;28;20029;-67
2023/05/05 11:08:35;;;;;;;6.38;1.98;;;;;;;;;;5051424;28;20489;-67
2023/05/05 11:11:01;;;;;;;10.55;2.13;;;;;;;;;;5052827;28;20021;-66
2023/05/05 11:13:26;;;;;;;8.00;2.08;;;;;;;;;;5052897;28;20028;-67
2023/05/05 11:15:53;;;;;;;5.10;1.90;;;;;;;;;;5053766;28;20419;-66
2023/05/05 11:18:34;;;;;;;5.68;1.88;;;;;;;;;;5053029;28;20029;-66
2023/05/05 11:20:59;;;;;;;4.85;1.80;;;;;;;;;;5053031;28;20543;-67
2023/05/05 11:23:25;;;;;;;5.60;2.00;;;;;;;;;;5046508;28;20025;-67
2023/05/05 11:25:53;;;;;;;6.07;2.10;;;;;;;;;;5056556;28;20020;-66
2023/05/05 11:28:21;;;;;;;5.30;1.90;;;;;;;;;;5076490;28;20024;-66
2023/05/05 11:30:56;;;;;;;4.15;1.90;;;;;;;;;;5080989;28;20031;-68
2023/05/05 11:33:31;;;;;;;7.22;2.20;;;;;;;;;;5072520;28;20040;-66
2023/05/05 11:35:57;;;;;;;5.15;1.92;;;;;;;;;;5063349;28;20040;-67
2023/05/05 11:38:40;;;;;;;5.97;1.70;;;;;;;;;;5054415;28;20064;-67
2023/05/05 11:41:12;;;;;;;5.47;1.90;;;;;;;;;;5058719;28;20017;-65
2023/05/05 11:43:38;;;;;;;5.38;1.80;;;;;;;;;;5072538;28;20024;-66
2023/05/05 11:46:14;;;;;;;5.53;1.75;;;;;;;;;;5072962;28;20352;-66
2023/05/05 11:48:42;;;;;;;8.20;1.95;;;;;;;;;;5054569;28;20028;-65
2023/05/05 11:51:10;;;;;;;5.00;1.83;;;;;;;;;;5052721;28;20021;-67
2023/05/05 11:53:35;;;;;;;6.63;1.90;;;;;;;;;;5065240;28;20089;-66
2023/05/05 11:56:07;;;;;;;4.97;1.80;;;;;;;;;;5053734;28;20110;-66
2023/05/05 11:58:32;;;;;;;4.82;1.60;;;;;;;;;;5054972;28;20468;-65
2023/05/05 12:00:57;;;;;;;4.90;2.00;;;;;;;;;;5072434;28;20020;-65
2023/05/05 12:03:23;;;;;;;4.55;1.80;;;;;;;;;;5071860;28;20079;-65
2023/05/05 12:05:48;;;;;;;7.57;2.00;;;;;;;;;;5072216;28;20012;-66
2023/05/05 12:08:13;;;;;;;5.50;1.90;;;;;;;;;;5072674;28;20376;-67
2023/05/05 12:10:38;;;;;;;6.93;2.00;;;;;;;;;;5051067;28;20058;-67
2023/05/05 12:13:15;;;;;;;5.47;1.70;;;;;;;;;;5057100;28;20024;-66
2023/05/05 12:15:40;;;;;;;4.25;1.52;;;;;;;;;;5072003;28;20017;-67
2023/05/05 12:18:16;;;;;;;5.18;1.70;;;;;;;;;;5072336;28;20521;-66
2023/05/05 12:20:41;;;;;;;5.28;1.65;;;;;;;;;;5072183;28;20074;-67
2023/05/05 12:23:06;;;;;;;4.47;1.50;;;;;;;;;;5063992;28;20102;-66
2023/05/05 12:25:36;;;;;;;3.75;1.50;;;;;;;;;;5045711;28;20028;-66
2023/05/05 12:28:02;;;;;;;4.82;1.90;;;;;;;;;;5049996;28;20028;-65
2023/05/05 12:30:27;;;;;;;6.70;1.87;;;;;;;;;;5043438;28;20017;-66
2023/05/05 12:32:59;;;;;;;4.82;1.73;;;;;;;;;;5051098;28;20017;-66
2023/05/05 12:35:24;;;;;;;5.00;1.92;;;;;;;;;;5058367;28;20488;-66
2023/05/05 12:37:50;;;;;;;7.03;2.00;;;;;;;;;;5048891;28;20035;-66
2023/05/05 12:40:33;;;;;;;5.05;1.70;;;;;;;;;;5046220;28;20029;-65
2023/05/05 12:42:59;;;;;;;4.90;1.80;;;;;;;;;;5044046;28;20484;-66
2023/05/05 12:45:24;;;;;;;8.27;2.00;;;;;;;;;;5054062;28;20071;-65
2023/05/05 12:47:49;;;;;;;5.20;1.60;;;;;;;;;;5052677;28;20025;-68
2023/05/05 12:50:27;;;;;;;4.37;1.60;;;;;;;;;;5057773;28;20451;-66
2023/05/05 12:52:53;;;;;;;3.67;1.75;;;;;;;;;;5046532;28;20492;-66
2023/05/05 12:55:18;;;;;;;4.78;1.85;;;;;;;;;;5051616;28;20074;-66
2023/05/05 12:58:05;;;;;;;5.47;1.95;;;;;;;;;;5071854;28;20035;-66
2023/05/05 13:00:30;;;;;;;5.18;1.88;;;;;;;;;;5064985;28;20037;-66
2023/05/05 13:02:55;;;;;;;4.53;1.70;;;;;;;;;;5063416;28;20027;-65
2023/05/05 13:05:30;;;;;;;4.70;2.00;;;;;;;;;;5046338;28;20021;-66
2023/05/05 13:07:56;;;;;;;6.43;1.90;;;;;;;;;;5042067;28;20021;-66
2023/05/05 13:10:21;;;;;;;5.80;1.65;;;;;;;;;;5051175;28;20082;-66
2023/05/05 13:12:47;;;;;;;4.55;1.90;;;;;;;;;;5048999;28;20481;-66
2023/05/05 13:15:12;;;;;;;6.55;1.98;;;;;;;;;;5049152;28;20021;-65
2023/05/05 13:17:37;;;;;;;;;;;;;;;;;;5049789;28;20086;-65
2023/05/05 13:20:02;;;;;;;6.18;1.80;;;;;;;;;;5049984;28;20020;-65
2023/05/05 13:22:27;;;;;;;4.80;1.90;;;;;;;;;;5056212;28;20020;-65
2023/05/05 13:24:52;;;;;;;7.25;1.90;;;;;;;;;;5050257;28;20446;-67
2023/05/05 13:27:18;;;;;;;4.60;1.70;;;;;;;;;;5054586;28;20112;-66
2023/05/05 13:29:43;;;;;;;4.43;1.70;;;;;;;;;;5050112;28;20457;-65
2023/05/05 13:32:08;;;;;;;5.30;1.73;;;;;;;;;;5047039;28;20074;-66
2023/05/05 13:34:33;;;;;;;4.35;1.70;;;;;;;;;;5046700;28;20032;-66
2023/05/05 13:36:58;;;;;;;5.03;1.90;;;;;;;;;;5049693;28;20056;-66
2023/05/05 13:39:24;;;;;;;;;;;;;;;;;;5059527;28;20058;-66
2023/05/05 13:41:49;;;;;;;4.30;1.87;;;;;;;;;;5049730;28;19980;-66
2023/05/05 13:44:14;;;;;;;;;;;;;;;;;;5058505;28;20074;-66
2023/05/05 13:46:40;;;;;;;5.53;1.90;;;;;;;;;;5047500;28;20291;-66
2023/05/05 13:49:05;;;;;;;;;;;;;;;;;;5051228;28;20067;-67
2023/05/05 13:51:30;;;;;;;7.05;1.65;;;;;;;;;;5041048;28;19909;-67
2023/05/05 13:53:55;;;;;;;5.68;2.00;;;;;;;;;;5052154;28;20029;-66
2023/05/05 13:56:24;;;;;;;;;;;;;;;;;;5060860;28;20055;-66
2023/05/05 13:58:49;;;;;;;6.45;1.83;;;;;;;;;;5051286;28;20027;-65
2023/05/05 14:01:15;;;;;;;5.60;2.30;;;;;;;;;;5049378;28;20041;-65
2023/05/05 14:03:40;;;;;;;4.40;1.70;;;;;;;;;;5050801;28;20152;-65
2023/05/05 14:06:05;;;;;;;;;;;;;;;;;;5045689;28;20499;-66
2023/05/05 14:08:30;;;;;;;4.03;1.70;;;;;;;;;;5049081;28;19912;-66
2023/05/05 14:10:55;;;;;;;;;;;;;;;;;;5052445;28;20021;-65
2023/05/05 14:13:20;;;;;;;4.82;1.83;;;;;;;;;;5045173;28;19920;-66
2023/05/05 14:15:46;;;;;;;6.33;1.70;;;;;;;;;;5051746;28;20106;-66
2023/05/05 14:18:11;;;;;;;4.75;1.77;;;;;;;;;;5053455;28;20111;-66
2023/05/05 14:20:36;;;;;;;8.32;2.00;;;;;;;;;;5063928;28;20093;-66
2023/05/05 14:23:01;;;;;;;;;;;;;;;;;;5050556;28;20024;-65
2023/05/05 14:25:26;;;;;;;5.60;1.73;;;;;;;;;;5050772;28;20363;-66
2023/05/05 14:27:52;;;;;;;5.95;2.08;;;;;;;;;;5050140;28;20036;-66
2023/05/05 14:30:17;;;;;;;4.28;1.90;;;;;;;;;;5048169;28;20104;-66
2023/05/05 14:32:42;;;;;;;;;;;;;;;;;;5049895;28;20634;-66
2023/05/05 14:35:07;;;;;;;5.82;1.95;;;;;;;;;;5050168;28;19908;-65
2023/05/05 14:37:33;;;;;;;5.65;2.08;;;;;;;;;;5062413;28;20122;-65
2023/05/05 14:39:58;;;;;;;6.22;2.05;;;;;;;;;;5062803;28;20028;-66
2023/05/05 14:42:24;;;;;;;5.10;1.90;;;;;;;;;;5065332;28;20036;-66